createdAt,value
2022-12-14T00:01:45.139Z,100604.69
2022-12-14T00:04:17.462Z,100603.88
2022-12-14T00:06:44.397Z,100601.41
2022-12-14T00:09:11.482Z,100602.69
2022-12-14T00:11:38.391Z,100600.22
2022-12-14T00:14:06.204Z,100591.69
2022-12-14T00:16:35.174Z,100597.59
2022-12-14T00:19:02.954Z,100582.38
2022-12-14T00:21:29.862Z,100578.41
2022-12-14T00:23:59.503Z,100580.72
2022-12-14T00:26:31.043Z,100579.75
2022-12-14T00:29:00.584Z,100578.41
2022-12-14T00:31:28.124Z,100579.53
2022-12-14T00:33:55.523Z,100578.88
2022-12-14T00:36:22.928Z,100571.34
2022-12-14T00:38:49.815Z,100579.31
2022-12-14T00:41:16.712Z,100572.75
2022-12-14T00:43:44.242Z,100585.66
2022-12-14T00:46:11.427Z,100566.19
2022-12-14T00:48:38.564Z,100575.16
2022-12-14T00:51:06.040Z,100573.94
2022-12-14T00:53:32.968Z,100582.91
2022-12-14T00:56:08.750Z,100581.56
2022-12-14T00:58:36.047Z,100582.31
2022-12-14T01:01:12.343Z,100589.97
2022-12-14T01:03:39.571Z,100579.31
2022-12-14T01:06:06.811Z,100576.97
2022-12-14T01:08:36.637Z,100589.34
2022-12-14T01:11:08.609Z,100588.66
2022-12-14T01:13:37.542Z,100579.34
2022-12-14T01:16:11.636Z,100589.94
2022-12-14T01:18:40.350Z,100585.97
2022-12-14T01:21:19.490Z,100571.28
2022-12-14T01:23:48.650Z,100550.44
2022-12-14T01:26:17.387Z,100555.81
2022-12-14T01:28:46.234Z,100552.53
2022-12-14T01:31:17.259Z,100568.19
2022-12-14T01:33:45.161Z,100569.31
2022-12-14T01:36:19.072Z,100562.59
2022-12-14T01:38:47.602Z,100559.16
2022-12-14T01:41:29.962Z,100556.84
2022-12-14T01:44:02.033Z,100565.78
2022-12-14T01:46:34.150Z,100551.38
2022-12-14T01:49:13.464Z,100553.16
2022-12-14T01:51:48.754Z,100557.88
2022-12-14T01:54:16.702Z,100546.91
2022-12-14T01:56:45.804Z,100557.47
2022-12-14T01:59:23.603Z,100549.13
2022-12-14T02:01:52.290Z,100544.03
2022-12-14T02:04:20.127Z,100554.63
2022-12-14T02:06:49.370Z,100538.44
2022-12-14T02:09:21.951Z,100542.56
2022-12-14T02:11:58.682Z,100552.16
2022-12-14T02:14:26.703Z,100535.16
2022-12-14T02:16:56.106Z,100534.47
2022-12-14T02:19:23.649Z,100538.44
2022-12-14T02:22:34.536Z,100537.78
2022-12-14T02:25:31.693Z,100544.25
2022-12-14T02:28:53.173Z,100547.13
2022-12-14T02:31:45.026Z,100538.78
2022-12-14T02:34:45.520Z,100544.13
2022-12-14T02:37:39.129Z,100537.44
2022-12-14T02:40:34.369Z,100536.88
2022-12-14T02:43:30.755Z,100539.50
2022-12-14T02:46:45.068Z,100534.13
2022-12-14T02:49:32.846Z,100534.81
2022-12-14T02:52:29.430Z,100531.38
2022-12-14T02:55:17.790Z,100537.44
2022-12-14T02:58:01.418Z,100528.94
2022-12-14T03:00:33.803Z,100524.69
2022-12-14T03:03:01.778Z,100523.84
2022-12-14T03:05:29.622Z,100519.84
2022-12-14T03:08:14.548Z,100518.88
2022-12-14T03:10:51.643Z,100520.38
2022-12-14T03:13:37.439Z,100520.38
2022-12-14T03:16:22.931Z,100515.97
2022-12-14T03:19:42.700Z,100515.97
2022-12-14T03:22:30.253Z,100513.66
2022-12-14T03:25:27.051Z,100513.13
2022-12-14T03:28:12.243Z,100504.50
2022-12-14T03:31:00.319Z,100515.75
2022-12-14T03:33:30.731Z,100498.06
2022-12-14T03:36:16.463Z,100487.50
2022-12-14T03:38:48.139Z,100493.53
2022-12-14T03:41:54.866Z,100496.28
2022-12-14T03:44:48.769Z,100496.53
2022-12-14T03:47:33.518Z,100495.03
2022-12-14T03:50:06.883Z,100491.59
2022-12-14T03:52:50.198Z,100489.16
2022-12-14T03:55:40.910Z,100477.38
2022-12-14T03:58:27.783Z,100474.63
2022-12-14T04:01:21.584Z,100479.81
2022-12-14T04:04:04.043Z,100477.50
2022-12-14T04:06:45.679Z,100484.38
2022-12-14T04:09:52.313Z,100485.19
2022-12-14T04:12:56.840Z,100465.59
2022-12-14T04:15:48.981Z,100471.75
2022-12-14T04:18:59.262Z,100469.16
2022-12-14T04:21:36.685Z,100468.34
2022-12-14T04:24:43.541Z,100464.63
2022-12-14T04:27:36.607Z,100449.13
2022-12-14T04:30:06.261Z,100452.69
2022-12-14T04:33:26.541Z,100456.78
2022-12-14T04:35:57.376Z,100457.47
2022-12-14T04:38:35.212Z,100453.75
2022-12-14T04:41:09.363Z,100451.16
2022-12-14T04:43:41.827Z,100449.34
2022-12-14T04:46:13.900Z,100447.03
2022-12-14T04:48:48.233Z,100447.44
2022-12-14T04:52:04.824Z,100436.47
2022-12-14T04:54:53.587Z,100429.09
2022-12-14T04:58:18.510Z,100427.72
2022-12-14T05:01:22.648Z,100423.38
2022-12-14T05:04:08.166Z,100419.44
2022-12-14T05:06:44.846Z,100419.28
2022-12-14T05:09:44.086Z,100427.25
2022-12-14T05:12:22.930Z,100411.38
2022-12-14T05:14:59.881Z,100413.31
2022-12-14T05:17:27.937Z,100416.06
2022-12-14T05:19:54.897Z,100416.06
2022-12-14T05:22:22.227Z,100401.97
2022-12-14T05:24:49.139Z,100411.94
2022-12-14T05:27:16.520Z,100397.72
2022-12-14T05:29:43.555Z,100407.84
2022-12-14T05:32:13.508Z,100394.13
2022-12-14T05:34:40.706Z,100391.69
2022-12-14T05:37:09.571Z,100382.38
2022-12-14T05:39:40.174Z,100384.81
2022-12-14T05:42:07.274Z,100372.09
2022-12-14T05:44:34.263Z,100379.09
2022-12-14T05:47:01.305Z,100376.47
2022-12-14T05:49:28.200Z,100362.63
2022-12-14T05:51:55.409Z,100358.25
2022-12-14T05:54:22.322Z,100362.63
2022-12-14T05:56:49.499Z,100351.41
2022-12-14T05:59:17.557Z,100353.84
2022-12-14T06:01:45.637Z,100346.19
2022-12-14T06:04:18.836Z,100349.59
2022-12-14T06:06:46.121Z,100354.81
2022-12-14T06:09:16.001Z,100351.53
2022-12-14T06:11:44.583Z,100344.00
2022-12-14T06:14:13.371Z,100345.13
2022-12-14T06:16:43.274Z,100352.94
2022-12-14T06:19:11.543Z,100345.56
2022-12-14T06:21:40.820Z,100336.25
2022-12-14T06:24:09.851Z,100348.59
2022-12-14T06:26:37.398Z,100344.63
2022-12-14T06:29:04.843Z,100343.00
2022-12-14T06:31:33.132Z,100338.75
2022-12-14T06:34:03.046Z,100338.06
2022-12-14T06:36:33.195Z,100327.66
2022-12-14T06:39:04.742Z,100334.66
2022-12-14T06:41:32.073Z,100335.75
2022-12-14T06:44:08.221Z,100332.34
2022-12-14T06:46:36.538Z,100334.38
2022-12-14T06:49:05.832Z,100327.00
2022-12-14T06:51:37.779Z,100335.34
2022-12-14T06:54:04.795Z,100335.47
2022-12-14T06:56:32.134Z,100323.28
2022-12-14T06:58:59.466Z,100332.72
2022-12-14T07:01:26.770Z,100326.84
2022-12-14T07:03:56.528Z,100326.84
2022-12-14T07:06:26.001Z,100323.56
2022-12-14T07:08:55.872Z,100320.16
2022-12-14T07:11:23.569Z,100317.53
2022-12-14T07:13:50.586Z,100313.28
2022-12-14T07:16:23.873Z,100304.53
2022-12-14T07:18:52.301Z,100308.75
2022-12-14T07:21:20.904Z,100311.22
2022-12-14T07:23:49.196Z,100311.91
2022-12-14T07:26:26.443Z,100315.22
2022-12-14T07:28:55.106Z,100303.13
2022-12-14T07:31:28.555Z,100301.38
2022-12-14T07:33:58.301Z,100290.09
2022-12-14T07:36:28.012Z,100295.06
2022-12-14T07:38:56.099Z,100289.41
2022-12-14T07:41:30.685Z,100291.88
2022-12-14T07:44:00.655Z,100289.94
2022-12-14T07:46:29.626Z,100290.75
2022-12-14T07:48:59.054Z,100270.91
2022-12-14T07:51:29.669Z,100288.09
2022-12-14T07:53:57.254Z,100285.66
2022-12-14T07:56:38.019Z,100280.81
2022-12-14T07:59:08.588Z,100279.72
2022-12-14T08:01:37.501Z,100271.44
2022-12-14T08:04:11.892Z,100283.91
2022-12-14T08:06:40.607Z,100282.78
2022-12-14T08:09:10.563Z,100289.03
2022-12-14T08:11:39.139Z,100294.09
2022-12-14T08:14:18.753Z,100289.78
2022-12-14T08:16:47.316Z,100277.13
2022-12-14T08:19:15.011Z,100280.28
2022-12-14T08:21:42.253Z,100278.69
2022-12-14T08:24:12.215Z,100276.16
2022-12-14T08:26:39.566Z,100271.72
2022-12-14T08:29:06.753Z,100279.53
2022-12-14T08:31:34.422Z,100273.97
2022-12-14T08:34:02.185Z,100260.97
2022-12-14T08:36:34.419Z,100260.06
2022-12-14T08:39:07.912Z,100254.97
2022-12-14T08:41:35.548Z,100251.47
2022-12-14T08:44:04.642Z,100255.06
2022-12-14T08:46:34.334Z,100254.84
2022-12-14T08:49:01.562Z,100254.03
2022-12-14T08:51:29.561Z,100246.00
2022-12-14T08:53:57.341Z,100241.19
2022-12-14T08:56:27.271Z,100234.75
2022-12-14T08:58:54.636Z,100235.28
2022-12-14T09:01:33.408Z,100237.13
2022-12-14T09:04:08.268Z,100234.97
2022-12-14T09:06:38.942Z,100234.50
2022-12-14T09:09:13.608Z,100230.25
2022-12-14T09:11:42.882Z,100233.50
2022-12-14T09:14:10.912Z,100224.22
2022-12-14T09:16:38.100Z,100213.69
2022-12-14T09:19:05.387Z,100221.06
2022-12-14T09:21:32.488Z,100215.16
2022-12-14T09:24:00.166Z,100222.88
2022-12-14T09:26:28.003Z,100215.91
2022-12-14T09:28:58.100Z,100213.44
2022-12-14T09:31:27.759Z,100202.19
2022-12-14T09:33:55.358Z,100197.50
2022-12-14T09:36:27.540Z,100196.63
2022-12-14T09:38:56.528Z,100191.69
2022-12-14T09:41:35.569Z,100189.75
2022-12-14T09:44:18.857Z,100186.84
2022-12-14T09:47:10.812Z,100185.47
2022-12-14T09:49:44.929Z,100183.19
2022-12-14T09:52:40.255Z,100166.56
2022-12-14T09:55:34.957Z,100168.13
2022-12-14T09:58:09.956Z,100157.50
2022-12-14T10:00:52.909Z,100165.19
2022-12-14T10:04:10.835Z,100159.88
2022-12-14T10:07:11.657Z,100160.47
2022-12-14T10:10:02.248Z,100166.34
2022-12-14T10:13:20.774Z,100161.19
2022-12-14T10:16:15.286Z,100148.50
2022-12-14T10:19:07.252Z,100134.53
2022-12-14T10:21:47.398Z,100137.69
2022-12-14T10:24:22.479Z,100125.34
2022-12-14T10:26:55.201Z,100125.06
2022-12-14T10:29:37.261Z,100121.28
2022-12-14T10:32:19.476Z,100120.28
2022-12-14T10:34:46.671Z,100119.00
2022-12-14T10:37:35.129Z,100112.44
2022-12-14T10:40:33.156Z,100111.50
2022-12-14T10:43:25.963Z,100105.34
2022-12-14T10:46:10.133Z,100095.31
2022-12-14T10:48:57.166Z,100104.19
2022-12-14T10:51:47.887Z,100101.50
2022-12-14T10:54:39.306Z,100100.03
2022-12-14T10:57:06.457Z,100100.94
2022-12-14T10:59:44.700Z,100101.81
2022-12-14T11:02:23.135Z,100097.94
2022-12-14T11:05:03.840Z,100088.78
2022-12-14T11:07:33.841Z,100086.06
2022-12-14T11:10:19.228Z,100075.78
2022-12-14T11:13:05.490Z,100076.81
2022-12-14T11:15:43.248Z,100071.19
2022-12-14T11:18:16.557Z,100072.38
2022-12-14T11:20:55.547Z,100058.63
2022-12-14T11:23:27.672Z,100059.22
2022-12-14T11:25:59.234Z,100057.22
2022-12-14T11:28:49.960Z,100057.13
2022-12-14T11:31:39.009Z,100054.16
2022-12-14T11:34:22.131Z,100038.94
2022-12-14T11:36:50.171Z,100049.94
2022-12-14T11:39:24.666Z,100051.94
2022-12-14T11:42:04.501Z,100055.47
2022-12-14T11:44:37.661Z,100052.53
2022-12-14T11:47:15.827Z,100036.56
2022-12-14T11:49:45.915Z,100049.19
2022-12-14T11:52:25.396Z,100047.94
2022-12-14T11:54:52.377Z,100046.00
2022-12-14T11:57:34.532Z,100041.53
2022-12-14T12:00:06.948Z,100042.19
2022-12-14T12:02:38.289Z,100046.31
2022-12-14T12:05:14.758Z,100031.28
2022-12-14T12:08:02.856Z,100033.91
2022-12-14T12:10:45.074Z,100038.91
2022-12-14T12:13:38.694Z,100031.69
2022-12-14T12:16:22.867Z,100035.88
2022-12-14T12:19:15.654Z,100034.97
2022-12-14T12:21:45.191Z,100032.09
2022-12-14T12:25:24.245Z,100029.22
2022-12-14T12:27:45.216Z,100019.50
2022-12-14T12:30:28.634Z,100025.03
2022-12-14T12:33:05.469Z,100024.81
2022-12-14T12:35:49.556Z,100008.63
2022-12-14T12:38:55.202Z,100009.00
2022-12-14T12:42:05.196Z,100012.31
2022-12-14T12:44:49.548Z,100005.72
2022-12-14T12:47:41.553Z,100015.13
2022-12-14T12:50:37.047Z,100008.03
2022-12-14T12:53:15.065Z,100011.03
2022-12-14T12:55:50.174Z,100006.16
2022-12-14T12:58:29.297Z,100003.19
2022-12-14T13:01:02.073Z,100012.59
2022-12-14T13:03:40.184Z,100003.84
2022-12-14T13:06:31.428Z,99998.66
2022-12-14T13:09:17.819Z,100006.28
2022-12-14T13:11:46.039Z,100011.13
2022-12-14T13:14:36.076Z,99997.22
2022-12-14T13:17:06.709Z,99995.28
2022-12-14T13:19:52.080Z,100001.69
2022-12-14T13:22:31.274Z,99999.34
2022-12-14T13:25:06.486Z,99991.69
2022-12-14T13:27:58.372Z,99992.94
2022-12-14T13:30:42.707Z,99995.63
2022-12-14T13:33:53.710Z,99997.06
2022-12-14T13:36:55.231Z,99988.31
2022-12-14T13:39:50.575Z,99990.53
2022-12-14T13:42:51.914Z,99994.97
2022-12-14T13:45:27.470Z,99998.75
2022-12-14T13:47:57.157Z,99992.56
2022-12-14T13:50:51.245Z,99983.19
2022-12-14T13:53:37.271Z,99986.56
2022-12-14T13:56:05.186Z,99989.50
2022-12-14T13:58:44.940Z,99990.63
2022-12-14T14:01:48.406Z,99993.19
2022-12-14T14:04:25.808Z,99985.34
2022-12-14T14:06:56.635Z,99981.00
2022-12-14T14:09:26.571Z,99982.34
2022-12-14T14:12:24.192Z,99978.41
2022-12-14T14:15:08.233Z,99983.38
2022-12-14T14:17:41.576Z,99981.88
2022-12-14T14:20:47.397Z,99970.88
2022-12-14T14:23:14.291Z,99969.56
2022-12-14T14:25:49.847Z,99966.56
2022-12-14T14:28:22.980Z,99963.44
2022-12-14T14:30:52.484Z,99961.75
2022-12-14T14:33:46.521Z,99953.34
2022-12-14T14:36:30.871Z,99945.78
2022-12-14T14:39:01.604Z,99935.94
2022-12-14T14:41:40.693Z,99924.09
2022-12-14T14:45:00.012Z,99932.25
2022-12-14T14:47:39.529Z,99937.31
2022-12-14T14:50:24.670Z,99934.78
2022-12-14T14:53:32.851Z,99940.78
2022-12-14T14:56:29.252Z,99932.19
2022-12-14T14:59:18.093Z,99929.81
2022-12-14T15:01:58.125Z,99924.03
2022-12-14T15:04:51.627Z,99927.56
2022-12-14T15:07:27.746Z,99931.91
2022-12-14T15:10:20.720Z,99924.13
2022-12-14T15:13:01.939Z,99918.59
2022-12-14T15:15:40.394Z,99931.44
2022-12-14T15:18:31.557Z,99920.00
2022-12-14T15:21:16.132Z,99924.31
2022-12-14T15:23:50.528Z,99927.81
2022-12-14T15:26:27.372Z,99920.03
2022-12-14T15:29:00.551Z,99917.94
2022-12-14T15:31:40.366Z,99929.31
2022-12-14T15:34:15.417Z,99935.91
2022-12-14T15:36:43.154Z,99932.16
2022-12-14T15:39:40.008Z,99940.56
2022-12-14T15:42:11.690Z,99932.75
2022-12-14T15:44:43.699Z,99924.97
2022-12-14T15:47:27.855Z,99927.28
2022-12-14T15:50:00.464Z,99928.16
2022-12-14T15:52:31.158Z,99930.31
2022-12-14T15:54:59.485Z,99926.38
2022-12-14T15:57:26.740Z,99921.47
2022-12-14T15:59:57.427Z,99921.66
2022-12-14T16:02:38.198Z,99921.19
2022-12-14T16:05:06.438Z,99922.53
2022-12-14T16:07:39.362Z,99928.75
2022-12-14T16:10:32.965Z,99923.38
2022-12-14T16:13:33.469Z,99915.06
2022-12-14T16:16:11.736Z,99911.34
2022-12-14T16:18:50.785Z,99917.06
2022-12-14T16:21:35.292Z,99915.63
2022-12-14T16:24:24.228Z,99914.34
2022-12-14T16:27:00.723Z,99905.38
2022-12-14T16:29:33.665Z,99915.19
2022-12-14T16:32:07.109Z,99907.03
2022-12-14T16:34:34.523Z,99909.34
2022-12-14T16:37:34.740Z,99907.72
2022-12-14T16:39:52.476Z,99912.81
2022-12-14T16:42:25.842Z,99905.13
2022-12-14T16:44:54.404Z,99908.09
2022-12-14T16:47:21.530Z,99913.66
2022-12-14T16:49:51.959Z,99907.31
2022-12-14T16:52:35.506Z,99907.78
2022-12-14T16:55:18.604Z,99914.16
2022-12-14T16:57:48.626Z,99911.06
2022-12-14T17:00:36.170Z,99925.47
2022-12-14T17:03:09.124Z,99925.63
2022-12-14T17:05:40.369Z,99927.75
2022-12-14T17:08:08.626Z,99922.88
2022-12-14T17:10:37.408Z,99920.59
2022-12-14T17:13:04.521Z,99933.66
2022-12-14T17:15:34.449Z,99932.03
2022-12-14T17:18:04.713Z,99932.34
2022-12-14T17:20:39.566Z,99935.97
2022-12-14T17:23:10.299Z,99931.06
2022-12-14T17:25:37.353Z,99927.81
2022-12-14T17:28:21.707Z,99918.84
2022-12-14T17:30:50.521Z,99924.72
2022-12-14T17:33:17.875Z,99915.72
2022-12-14T17:35:44.916Z,99915.25
2022-12-14T17:38:16.516Z,99930.59
2022-12-14T17:40:45.628Z,99931.91
2022-12-14T17:43:21.005Z,99925.22
2022-12-14T17:45:48.332Z,99923.09
2022-12-14T17:48:17.436Z,99923.75
2022-12-14T17:50:48.411Z,99932.72
2022-12-14T17:53:26.416Z,99927.03
2022-12-14T17:55:53.532Z,99921.31
2022-12-14T17:58:20.472Z,99918.69
2022-12-14T18:01:03.656Z,99915.44
2022-12-14T18:03:36.521Z,99909.72
2022-12-14T18:06:04.726Z,99912.50
2022-12-14T18:08:31.903Z,99918.06
2022-12-14T18:11:02.986Z,99913.16
2022-12-14T18:13:33.141Z,99921.50
2022-12-14T18:16:00.995Z,99922.47
2022-12-14T18:18:29.394Z,99929.50
2022-12-14T18:21:02.684Z,99926.38
2022-12-14T18:23:31.909Z,99918.03
2022-12-14T18:26:00.663Z,99924.09
2022-12-14T18:28:27.643Z,99929.63
2022-12-14T18:31:01.745Z,99919.50
2022-12-14T18:33:29.670Z,99928.47
2022-12-14T18:35:57.541Z,99910.38
2022-12-14T18:38:25.863Z,99915.59
2022-12-14T18:40:56.227Z,99918.84
2022-12-14T18:43:28.484Z,99924.88
2022-12-14T18:45:56.716Z,99923.59
2022-12-14T18:48:25.194Z,99930.75
2022-12-14T18:50:54.604Z,99931.06
2022-12-14T18:53:24.413Z,99924.56
2022-12-14T18:55:52.612Z,99930.59
2022-12-14T18:58:24.425Z,99917.22
2022-12-14T19:00:55.211Z,99931.22
2022-12-14T19:03:24.182Z,99928.78
2022-12-14T19:05:51.655Z,99926.50
2022-12-14T19:08:19.683Z,99933.66
2022-12-14T19:10:48.577Z,99923.41
2022-12-14T19:13:25.733Z,99919.47
2022-12-14T19:15:54.200Z,99928.94
2022-12-14T19:18:21.614Z,99921.59
2022-12-14T19:20:49.463Z,99919.97
2022-12-14T19:23:19.865Z,99933.66
2022-12-14T19:25:47.536Z,99932.34
2022-12-14T19:28:31.283Z,99934.28
2022-12-14T19:31:00.426Z,99937.06
2022-12-14T19:33:28.625Z,99932.97
2022-12-14T19:35:56.206Z,99939.00
2022-12-14T19:38:23.165Z,99946.03
2022-12-14T19:41:05.105Z,99920.91
2022-12-14T19:43:32.727Z,99927.59
2022-12-14T19:46:00.226Z,99930.03
2022-12-14T19:48:27.247Z,99942.09
2022-12-14T19:50:54.293Z,99938.03
2022-12-14T19:53:23.703Z,99933.63
2022-12-14T19:55:53.997Z,99937.53
2022-12-14T19:58:25.499Z,99946.00
2022-12-14T20:00:52.766Z,99941.09
2022-12-14T20:03:20.047Z,99935.88
2022-12-14T20:05:59.318Z,99944.53
2022-12-14T20:08:29.398Z,99939.13
2022-12-14T20:10:57.511Z,99953.47
2022-12-14T20:13:26.661Z,99961.47
2022-12-14T20:15:59.660Z,99951.34
2022-12-14T20:18:28.430Z,99952.97
2022-12-14T20:21:08.072Z,99946.13
2022-12-14T20:23:37.317Z,99954.13
2022-12-14T20:26:12.963Z,99952.47
2022-12-14T20:28:40.869Z,99950.19
2022-12-14T20:31:10.172Z,99953.78
2022-12-14T20:33:38.389Z,99939.38
2022-12-14T20:36:06.573Z,99938.88
2022-12-14T20:38:34.065Z,99944.75
2022-12-14T20:41:10.592Z,99950.78
2022-12-14T20:43:40.502Z,99951.78
2022-12-14T20:46:30.772Z,99948.00
2022-12-14T20:49:01.446Z,99954.84
2022-12-14T20:51:30.495Z,99948.47
2022-12-14T20:53:57.943Z,99952.88
2022-12-14T20:56:25.457Z,99953.69
2022-12-14T20:58:52.723Z,99954.66
2022-12-14T21:01:21.594Z,99956.44
2022-12-14T21:03:50.252Z,99949.25
2022-12-14T21:06:22.605Z,99949.25
2022-12-14T21:09:04.994Z,99961.47
2022-12-14T21:12:02.400Z,99955.91
2022-12-14T21:14:36.250Z,99959.50
2022-12-14T21:17:04.021Z,99958.16
2022-12-14T21:19:32.919Z,99965.00
2022-12-14T21:21:59.929Z,99964.34
2022-12-14T21:27:23.783Z,99978.50
2022-12-14T21:29:52.288Z,99972.78
2022-12-14T21:32:20.756Z,99971.81
2022-12-14T21:34:48.416Z,99972.78
2022-12-14T21:37:15.983Z,99969.69
2022-12-14T21:39:47.590Z,99978.31
2022-12-14T21:42:20.964Z,99973.41
2022-12-14T21:44:50.739Z,99978.47
2022-12-14T21:47:29.451Z,99963.28
2022-12-14T21:49:57.313Z,99978.94
2022-12-14T21:52:27.093Z,99969.47
2022-12-14T21:54:54.490Z,99967.84
2022-12-14T21:57:49.484Z,99976.78
2022-12-14T22:00:19.167Z,99974.03
2022-12-14T22:02:46.333Z,99974.19
2022-12-14T22:05:13.401Z,99979.22
2022-12-14T22:07:40.520Z,99971.72
2022-12-14T22:10:07.825Z,99983.78
2022-12-14T22:12:34.894Z,99979.69
2022-12-14T22:15:02.044Z,99974.63
2022-12-14T22:17:28.949Z,99979.69
2022-12-14T22:19:56.169Z,99974.78
2022-12-14T22:22:23.361Z,99972.50
2022-12-14T22:24:51.231Z,99986.84
2022-12-14T22:27:19.916Z,99996.75
2022-12-14T22:29:47.418Z,100002.94
2022-12-14T22:32:15.999Z,99995.94
2022-12-14T22:34:43.275Z,99992.81
2022-12-14T22:37:13.557Z,99993.78
2022-12-14T22:39:40.713Z,99993.78
2022-12-14T22:42:07.677Z,99985.63
2022-12-14T22:44:34.837Z,99993.13
2022-12-14T22:47:02.247Z,99994.91
2022-12-14T22:49:29.262Z,99996.84
2022-12-14T22:51:56.494Z,99990.97
2022-12-14T22:54:27.716Z,99993.75
2022-12-14T22:57:05.133Z,99981.03
2022-12-14T22:59:45.174Z,99989.66
2022-12-14T23:02:12.840Z,99989.81
2022-12-14T23:04:40.168Z,99993.38
2022-12-14T23:07:07.295Z,99990.94
2022-12-14T23:09:53.152Z,99980.00
2022-12-14T23:12:38.881Z,99993.16
2022-12-14T23:15:24.765Z,99987.25
2022-12-14T23:21:18.257Z,100002.38
2022-12-14T23:24:04.767Z,99997.16
2022-12-14T23:26:51.647Z,99993.75
2022-12-14T23:29:37.581Z,99999.25
2022-12-14T23:32:23.548Z,99992.41
2022-12-14T23:35:09.095Z,99990.94
2022-12-14T23:37:55.026Z,99992.34
2022-12-14T23:40:40.377Z,99994.78
2022-12-14T23:43:36.609Z,100005.22
2022-12-14T23:46:24.459Z,100000.44
2022-12-14T23:49:15.350Z,99997.03
2022-12-14T23:52:02.011Z,100006.47
2022-12-14T23:54:47.940Z,99998.81
2022-12-14T23:57:34.069Z,100007.44
